DeKalb Peachtree Airport
KPDK : now visible

Airfield :











YOU CAN JOIN US ON...

 
LOGIN :

Register | Disclaimer

   EN    FR    IT 

 









Legend :    VFR   Marginal VFR   IFR   Intensive IFR   Very Intensive IFR
Visi :
Ceiling :
>= 8 km
>= 3000ft
5 to 8 km
1000 to 3000 ft
1500m to 5 km
500 to 1000 ft
800 to 1500m
200 to 500 ft
< 800m
< 200 ft
Symbols :   Thunderstorms  Fog  Heavy snow  Heavy precipitations  Wind > 20 kt






- Airport Elevation : 1003 ft


KPDK - DeKalb Peachtree

CURRENT METAR :
  • 060253Z AUTO 00000KT 10SM CLR 26/18 A2998 RMK AO2 SLP132 T02560183 52014

EXPIRED METARs :
  • 060153Z AUTO 08003KT 10SM CLR 27/18 A2997 RMK AO2 SLP128 T02670183
  • 060053Z 00000KT 10SM CLR 28/18 A2995 RMK AO2 SLP123 T02780178

TAF KPDK
Valid from the 06 at 00:00 until the 07 at 00:00 UTC


052320Z 0600/0624 12004KT P6SM VCSH FEW050
FM061200 09004KT P6SM VCSH BKN012 BKN100
FM061500 10006KT P6SM VCSH BKN025 BKN100
FM061900 13007KT 6SM -SHRA BKN035 OVC080
PROB30 0619/0624 3SM TSRA BKN025CB
KZTL FIR / North America



MET'MAP, your aeronautical weather chart ! - Copyright ORBIFLY December 2007 - Disclaimer

ORBIFLY MET'MAP TEAM :

Programming & Development : Alexandra Zaïnal
Concept & original design : Baudouin d'Aumeries
Assistance for programming : Marc-Olivier Méhu
Technical & hardware support : Manuel Goepfert

Contact : metmap@orbifly.com




SOURCES & CREDITS :

   NOAA       Earth
Advisory